createdAt,value
2022-10-11T00:02:26.313Z,7.32
2022-10-11T00:05:09.425Z,7.10
2022-10-11T00:07:52.064Z,7.65
2022-10-11T00:10:34.771Z,7.95
2022-10-11T00:13:18.131Z,7.20
2022-10-11T00:16:01.283Z,7.57
2022-10-11T00:18:44.190Z,7.75
2022-10-11T00:21:27.103Z,8.23
2022-10-11T00:24:08.328Z,7.88
2022-10-11T00:26:51.239Z,7.80
2022-10-11T00:29:34.239Z,8.93
2022-10-11T00:32:17.724Z,8.55
2022-10-11T00:35:04.648Z,7.65
2022-10-11T00:37:46.471Z,8.23
2022-10-11T00:40:29.450Z,7.40
2022-10-11T00:43:16.796Z,6.32
2022-10-11T00:46:13.830Z,6.40
2022-10-11T00:48:58.153Z,6.57
2022-10-11T00:51:42.997Z,6.07
2022-10-11T00:54:25.290Z,5.43
2022-10-11T00:57:07.276Z,5.15
2022-10-11T00:59:51.122Z,4.00
2022-10-11T01:02:32.426Z,3.90
2022-10-11T01:05:29.155Z,3.97
2022-10-11T01:08:13.861Z,3.35
2022-10-11T01:10:56.884Z,2.95
2022-10-11T01:13:44.876Z,3.30
2022-10-11T01:16:30.723Z,2.88
2022-10-11T01:19:20.579Z,2.45
2022-10-11T01:22:07.821Z,2.80
2022-10-11T01:25:01.595Z,2.33
2022-10-11T01:27:50.210Z,2.40
2022-10-11T01:30:33.656Z,2.88
2022-10-11T01:33:22.118Z,1.80
2022-10-11T01:36:09.159Z,2.03
2022-10-11T01:38:54.346Z,2.20
2022-10-11T01:41:39.469Z,2.20
2022-10-11T01:44:21.968Z,1.70
2022-10-11T01:47:04.964Z,1.80
2022-10-11T01:49:47.925Z,2.28
2022-10-11T01:52:32.036Z,1.95
2022-10-11T01:55:20.406Z,1.50
2022-10-11T01:58:08.046Z,1.67
2022-10-11T02:00:53.567Z,1.60
2022-10-11T02:03:42.397Z,2.10
2022-10-11T02:06:31.068Z,1.88
2022-10-11T02:09:16.354Z,1.77
2022-10-11T02:12:03.642Z,1.50
2022-10-11T02:14:48.885Z,1.73
2022-10-11T02:17:33.838Z,1.40
2022-10-11T02:20:19.402Z,1.42
2022-10-11T02:23:04.211Z,1.73
2022-10-11T02:25:47.266Z,1.80
2022-10-11T02:28:31.799Z,1.55
2022-10-11T02:31:15.760Z,1.77
2022-10-11T02:34:02.369Z,1.98
2022-10-11T02:36:47.938Z,1.58
2022-10-11T02:39:32.938Z,1.95
2022-10-11T02:42:19.087Z,1.67
2022-10-11T02:45:05.644Z,1.35
2022-10-11T02:47:49.067Z,1.45
2022-10-11T02:50:32.097Z,1.75
2022-10-11T02:53:14.767Z,1.60
2022-10-11T02:55:57.728Z,1.73
2022-10-11T02:58:40.750Z,1.50
2022-10-11T03:01:23.828Z,1.77
2022-10-11T03:04:06.917Z,1.40
2022-10-11T03:06:49.741Z,1.30
2022-10-11T03:09:33.007Z,1.50
2022-10-11T03:12:13.796Z,1.52
2022-10-11T03:14:57.204Z,1.70
2022-10-11T03:17:40.224Z,1.70
2022-10-11T03:20:23.236Z,1.38
2022-10-11T03:23:04.234Z,1.38
2022-10-11T03:25:48.057Z,1.08
2022-10-11T03:28:30.708Z,1.90
2022-10-11T03:31:13.713Z,1.52
2022-10-11T03:33:56.887Z,1.40
2022-10-11T03:36:39.681Z,1.10
2022-10-11T03:39:20.893Z,1.30
2022-10-11T03:42:04.112Z,1.23
2022-10-11T03:44:49.434Z,1.30
2022-10-11T03:47:29.685Z,1.67
2022-10-11T03:50:13.137Z,1.40
2022-10-11T03:52:56.177Z,1.10
2022-10-11T03:55:41.015Z,1.40
2022-10-11T03:58:24.497Z,1.70
2022-10-11T04:01:06.762Z,1.58
2022-10-11T04:03:49.786Z,1.50
2022-10-11T04:06:33.421Z,1.70
2022-10-11T04:09:12.535Z,1.52
2022-10-11T04:11:58.811Z,1.77
2022-10-11T04:14:40.457Z,2.13
2022-10-11T04:17:23.200Z,1.42
2022-10-11T04:20:06.879Z,1.50
2022-10-11T04:22:49.510Z,1.30
2022-10-11T04:25:32.260Z,1.13
2022-10-11T04:28:15.338Z,1.40
2022-10-11T04:30:58.254Z,1.83
2022-10-11T04:33:41.325Z,1.00
2022-10-11T04:36:24.257Z,1.52
2022-10-11T04:39:07.725Z,1.58
2022-10-11T04:41:50.566Z,1.50
2022-10-11T04:44:31.335Z,1.85
2022-10-11T04:47:14.714Z,1.73
2022-10-11T04:49:56.801Z,1.45
2022-10-11T04:52:39.148Z,1.55
2022-10-11T04:55:22.510Z,1.45
2022-10-11T04:58:05.144Z,1.85
2022-10-11T05:00:48.411Z,1.98
2022-10-11T05:03:31.507Z,1.40
2022-10-11T05:06:14.488Z,1.95
2022-10-11T05:08:55.164Z,1.50
2022-10-11T05:11:38.620Z,1.48
2022-10-11T05:14:21.595Z,1.33
2022-10-11T05:17:04.639Z,2.03
2022-10-11T05:19:47.751Z,1.20
2022-10-11T05:22:30.636Z,2.05
2022-10-11T05:25:13.636Z,1.77
2022-10-11T05:27:56.629Z,1.63
2022-10-11T05:30:39.643Z,1.58
2022-10-11T05:33:24.116Z,1.42
2022-10-11T05:36:08.529Z,1.58
2022-10-11T05:38:51.877Z,2.10
2022-10-11T05:41:34.910Z,1.90
2022-10-11T05:44:17.968Z,8.95
2022-10-11T05:47:00.923Z,2.47
2022-10-11T05:49:43.950Z,1.98
2022-10-11T05:52:27.175Z,2.58
2022-10-11T05:55:08.736Z,1.80
2022-10-11T05:57:53.293Z,1.52
2022-10-11T06:00:34.182Z,1.67
2022-10-11T06:03:19.795Z,2.95
2022-10-11T06:06:05.275Z,1.70
2022-10-11T06:08:48.304Z,1.67
2022-10-11T06:11:31.190Z,1.92
2022-10-11T06:14:28.051Z,1.90
2022-10-11T06:17:27.073Z,2.25
2022-10-11T06:20:28.578Z,1.60
2022-10-11T06:23:25.032Z,2.47
2022-10-11T06:26:24.538Z,1.98
2022-10-11T06:29:25.113Z,1.48
2022-10-11T06:32:25.560Z,1.83
2022-10-11T06:35:26.441Z,1.45
2022-10-11T06:38:23.324Z,1.85
2022-10-11T06:41:24.880Z,1.95
2022-10-11T06:44:21.320Z,2.00
2022-10-11T06:47:18.697Z,1.70
2022-10-11T06:50:25.957Z,1.70
2022-10-11T06:53:42.037Z,2.40
2022-10-11T06:56:41.748Z,1.83
2022-10-11T06:59:44.742Z,2.17
2022-10-11T07:02:52.995Z,1.48
2022-10-11T07:05:49.791Z,2.28
2022-10-11T07:08:50.935Z,1.45
2022-10-11T07:11:48.823Z,2.00
2022-10-11T07:14:43.042Z,1.50
2022-10-11T07:17:39.299Z,1.60
2022-10-11T07:20:40.395Z,1.70
2022-10-11T07:23:40.116Z,1.48
2022-10-11T07:26:39.431Z,1.45
2022-10-11T07:29:42.895Z,1.75
2022-10-11T07:32:42.647Z,1.70
2022-10-11T07:35:46.006Z,1.60
2022-10-11T07:38:50.138Z,2.05
2022-10-11T07:41:56.079Z,1.60
2022-10-11T07:44:56.256Z,1.55
2022-10-11T07:47:57.247Z,1.77
2022-10-11T07:51:02.863Z,1.92
2022-10-11T07:53:58.230Z,2.47
2022-10-11T07:57:04.179Z,1.75
2022-10-11T08:00:00.569Z,1.90
2022-10-11T08:03:10.304Z,1.77
2022-10-11T08:06:15.434Z,2.17
2022-10-11T08:09:30.363Z,1.70
2022-10-11T08:12:28.584Z,1.80
2022-10-11T08:15:22.746Z,1.30
2022-10-11T08:18:33.587Z,1.67
2022-10-11T08:21:33.865Z,1.52
2022-10-11T08:24:38.426Z,1.75
2022-10-11T08:27:35.265Z,1.38
2022-10-11T08:30:32.415Z,1.33
2022-10-11T08:33:30.983Z,2.55
2022-10-11T08:36:36.215Z,1.70
2022-10-11T08:39:32.710Z,2.00
2022-10-11T08:42:37.884Z,4.95
2022-10-11T08:45:34.987Z,2.00
2022-10-11T08:48:38.382Z,2.33
2022-10-11T08:51:37.039Z,1.45
2022-10-11T08:54:39.163Z,1.30
2022-10-11T08:57:48.923Z,1.48
2022-10-11T09:00:48.138Z,2.30
2022-10-11T09:03:36.912Z,1.48
2022-10-11T09:06:34.445Z,2.10
2022-10-11T09:09:23.946Z,1.55
2022-10-11T09:12:11.983Z,2.10
2022-10-11T09:15:10.862Z,1.70
2022-10-11T09:18:01.194Z,2.00
2022-10-11T09:20:58.727Z,1.70
2022-10-11T09:23:48.851Z,1.45
2022-10-11T09:26:35.474Z,1.33
2022-10-11T09:29:23.309Z,1.83
2022-10-11T09:32:14.462Z,1.80
2022-10-11T09:34:42.880Z,1.83
2022-10-11T09:37:15.501Z,1.60
2022-10-11T09:39:47.540Z,3.05
2022-10-11T09:42:16.187Z,3.47
2022-10-11T09:44:47.959Z,1.80
2022-10-11T09:47:19.252Z,1.27
2022-10-11T09:49:49.454Z,1.58
2022-10-11T09:52:18.466Z,1.98
2022-10-11T09:54:47.860Z,1.40
2022-10-11T09:57:23.377Z,1.25
2022-10-11T10:00:09.795Z,2.22
2022-10-11T10:02:43.286Z,5.25
2022-10-11T10:05:19.946Z,1.50
2022-10-11T10:08:04.093Z,1.60
2022-10-11T10:10:35.882Z,1.75
2022-10-11T10:13:05.739Z,1.80
2022-10-11T10:15:35.576Z,1.92
2022-10-11T10:18:10.369Z,2.60
2022-10-11T10:20:39.914Z,1.70
2022-10-11T10:23:11.159Z,1.60
2022-10-11T10:25:43.503Z,2.10
2022-10-11T10:28:22.747Z,1.95
2022-10-11T10:30:54.288Z,1.40
2022-10-11T10:33:25.106Z,1.80
2022-10-11T10:35:55.536Z,1.58
2022-10-11T10:38:27.383Z,1.20
2022-10-11T10:40:58.027Z,1.67
2022-10-11T10:43:27.666Z,1.35
2022-10-11T10:46:03.441Z,2.90
2022-10-11T10:49:02.028Z,2.28
2022-10-11T10:51:30.314Z,3.05
2022-10-11T10:54:02.406Z,1.98
2022-10-11T10:56:34.393Z,5.38
2022-10-11T10:59:07.411Z,2.75
2022-10-11T11:01:38.063Z,1.48
2022-10-11T11:04:12.013Z,1.88
2022-10-11T11:06:43.521Z,1.55
2022-10-11T11:09:23.045Z,1.60
2022-10-11T11:11:57.822Z,2.20
2022-10-11T11:14:32.193Z,1.30
2022-10-11T11:17:07.098Z,4.47
2022-10-11T11:19:40.931Z,2.20
2022-10-11T11:22:13.106Z,2.15
2022-10-11T11:24:46.110Z,5.75
2022-10-11T11:27:17.708Z,1.90
2022-10-11T11:29:54.509Z,1.33
2022-10-11T11:32:27.313Z,1.35
2022-10-11T11:35:01.145Z,1.45
2022-10-11T11:37:32.515Z,2.30
2022-10-11T11:40:03.198Z,2.47
2022-10-11T11:42:36.031Z,1.80
2022-10-11T11:45:05.915Z,1.60
2022-10-11T11:47:35.949Z,1.70
2022-10-11T11:50:07.466Z,1.80
2022-10-11T11:52:39.089Z,1.85
2022-10-11T11:55:10.622Z,2.05
2022-10-11T11:57:47.708Z,1.73
2022-10-11T12:00:18.386Z,1.92
2022-10-11T12:02:49.246Z,5.45
2022-10-11T12:05:20.686Z,3.33
2022-10-11T12:07:54.934Z,1.65
2022-10-11T12:10:28.070Z,3.38
2022-10-11T12:13:04.667Z,2.67
2022-10-11T12:15:33.753Z,1.60
2022-10-11T12:18:03.457Z,1.80
2022-10-11T12:20:34.639Z,2.92
2022-10-11T12:23:05.124Z,1.75
2022-10-11T12:25:39.608Z,1.80
2022-10-11T12:28:22.932Z,1.55
2022-10-11T12:30:54.654Z,2.10
2022-10-11T12:33:24.544Z,1.40
2022-10-11T12:36:01.523Z,2.50
2022-10-11T12:38:34.128Z,1.27
2022-10-11T12:41:28.188Z,1.27
2022-10-11T12:44:10.341Z,1.30
2022-10-11T12:47:01.711Z,1.52
2022-10-11T12:49:36.201Z,1.35
2022-10-11T12:52:06.881Z,1.30
2022-10-11T12:54:41.474Z,1.40
2022-10-11T12:57:27.124Z,1.27
2022-10-11T12:59:55.563Z,2.80
2022-10-11T13:02:28.919Z,1.63
2022-10-11T13:05:08.022Z,1.50
2022-10-11T13:07:37.844Z,1.52
2022-10-11T13:10:06.927Z,1.27
2022-10-11T13:12:37.995Z,1.33
2022-10-11T13:15:09.742Z,1.27
2022-10-11T13:17:39.135Z,1.40
2022-10-11T13:20:11.153Z,0.90
2022-10-11T13:22:41.857Z,2.20
2022-10-11T13:25:10.904Z,1.27
2022-10-11T13:27:39.683Z,1.45
2022-10-11T13:30:10.814Z,1.92
2022-10-11T13:32:39.248Z,2.47
2022-10-11T13:35:17.076Z,5.03
2022-10-11T13:37:49.294Z,1.58
2022-10-11T13:40:19.327Z,1.27
2022-10-11T13:42:49.059Z,1.25
2022-10-11T13:45:18.582Z,0.95
2022-10-11T13:47:47.544Z,1.30
2022-10-11T13:50:22.732Z,1.52
2022-10-11T13:52:59.259Z,1.63
2022-10-11T13:55:29.411Z,1.50
2022-10-11T13:57:58.690Z,1.40
2022-10-11T14:00:28.994Z,1.42
2022-10-11T14:02:59.823Z,2.03
2022-10-11T14:05:33.509Z,1.55
2022-10-11T14:08:04.657Z,1.45
2022-10-11T14:10:33.396Z,1.25
2022-10-11T14:13:03.940Z,1.38
2022-10-11T14:15:34.780Z,0.95
2022-10-11T14:18:04.061Z,2.10
2022-10-11T14:20:38.013Z,1.27
2022-10-11T14:23:08.203Z,1.05
2022-10-11T14:25:36.630Z,1.50
2022-10-11T14:28:05.691Z,1.15
2022-10-11T14:30:34.193Z,1.38
2022-10-11T14:33:03.007Z,1.00
2022-10-11T14:35:36.045Z,0.98
2022-10-11T14:38:04.419Z,1.40
2022-10-11T14:40:34.369Z,1.30
2022-10-11T14:43:02.754Z,1.60
2022-10-11T14:45:31.202Z,1.10
2022-10-11T14:47:59.605Z,1.10
2022-10-11T14:50:34.268Z,1.13
2022-10-11T14:53:02.972Z,1.40
2022-10-11T14:55:32.066Z,1.60
2022-10-11T14:58:01.777Z,1.15
2022-10-11T15:00:31.567Z,1.38
2022-10-11T15:03:00.212Z,1.25
2022-10-11T15:05:33.998Z,1.23
2022-10-11T15:08:02.798Z,1.08
2022-10-11T15:10:32.209Z,1.08
2022-10-11T15:13:01.899Z,1.40
2022-10-11T15:15:32.799Z,1.35
2022-10-11T15:18:02.082Z,0.90
2022-10-11T15:20:32.601Z,1.33
2022-10-11T15:23:01.556Z,1.60
2022-10-11T15:25:30.386Z,0.90
2022-10-11T15:27:58.980Z,1.00
2022-10-11T15:30:29.772Z,1.10
2022-10-11T15:32:58.374Z,1.10
2022-10-11T15:35:27.847Z,1.33
2022-10-11T15:37:57.296Z,1.45
2022-10-11T15:40:27.838Z,1.08
2022-10-11T15:42:56.640Z,1.15
2022-10-11T15:45:25.867Z,1.30
2022-10-11T15:47:55.614Z,1.35
2022-10-11T15:50:34.089Z,0.95
2022-10-11T15:53:03.456Z,1.10
2022-10-11T15:55:32.237Z,1.75
2022-10-11T15:58:01.151Z,1.50
2022-10-11T16:00:29.942Z,1.30
2022-10-11T16:03:00.457Z,1.35
2022-10-11T16:05:30.333Z,1.38
2022-10-11T16:07:58.703Z,1.23
2022-10-11T16:10:27.178Z,1.70
2022-10-11T16:12:55.944Z,1.70
2022-10-11T16:15:24.355Z,1.20
2022-10-11T16:17:52.724Z,1.35
2022-10-11T16:20:24.590Z,1.13
2022-10-11T16:22:53.600Z,1.33
2022-10-11T16:25:25.587Z,1.33
2022-10-11T16:27:54.041Z,1.20
2022-10-11T16:30:22.531Z,1.20
2022-10-11T16:32:50.956Z,1.52
2022-10-11T16:35:19.510Z,1.50
2022-10-11T16:37:49.258Z,1.90
2022-10-11T16:40:20.237Z,2.72
2022-10-11T16:42:49.133Z,2.25
2022-10-11T16:45:18.125Z,2.00
2022-10-11T16:47:46.529Z,2.10
2022-10-11T16:50:14.961Z,2.20
2022-10-11T16:52:43.404Z,1.92
2022-10-11T16:55:13.127Z,1.67
2022-10-11T16:57:41.491Z,2.00
2022-10-11T17:00:11.039Z,2.40
2022-10-11T17:02:39.453Z,2.08
2022-10-11T17:05:07.984Z,2.20
2022-10-11T17:07:36.400Z,2.05
2022-10-11T17:10:05.518Z,1.80
2022-10-11T17:12:37.252Z,2.28
2022-10-11T17:15:06.082Z,1.88
2022-10-11T17:17:34.453Z,2.13
2022-10-11T17:20:03.820Z,2.60
2022-10-11T17:22:32.249Z,1.92
2022-10-11T17:25:01.478Z,2.40
2022-10-11T17:27:29.936Z,2.92
2022-10-11T17:29:59.695Z,2.00
2022-10-11T17:32:28.084Z,2.55
2022-10-11T17:34:57.317Z,2.45
2022-10-11T17:37:25.694Z,2.63
2022-10-11T17:39:54.789Z,2.85
2022-10-11T17:42:23.207Z,2.95
2022-10-11T17:44:51.794Z,2.30
2022-10-11T17:47:21.472Z,2.20
2022-10-11T17:49:49.859Z,2.33
2022-10-11T17:52:18.283Z,2.53
2022-10-11T17:54:46.685Z,2.17
2022-10-11T17:57:15.085Z,2.42
2022-10-11T17:59:43.439Z,2.40
2022-10-11T18:02:12.063Z,2.10
2022-10-11T18:04:41.932Z,2.17
2022-10-11T18:07:10.261Z,2.03
2022-10-11T18:09:38.576Z,1.90
2022-10-11T18:12:07.013Z,2.40
2022-10-11T18:14:35.318Z,2.10
2022-10-11T18:17:03.700Z,1.65
2022-10-11T18:19:32.015Z,2.10
2022-10-11T18:22:06.622Z,1.45
2022-10-11T18:24:35.521Z,2.30
2022-10-11T18:27:03.890Z,1.80
2022-10-11T18:29:32.223Z,2.05
2022-10-11T18:32:00.613Z,2.13
2022-10-11T18:34:28.957Z,1.90
2022-10-11T18:36:57.579Z,2.03
2022-10-11T18:39:27.283Z,2.53
2022-10-11T18:41:55.620Z,2.22
2022-10-11T18:44:23.975Z,2.20
2022-10-11T18:46:53.943Z,3.28
2022-10-11T18:49:22.527Z,3.03
2022-10-11T18:51:50.865Z,2.50
2022-10-11T18:54:21.381Z,2.30
2022-10-11T18:56:51.522Z,2.45
2022-10-11T18:59:20.470Z,2.80
2022-10-11T19:01:51.956Z,2.33
2022-10-11T19:04:20.790Z,2.80
2022-10-11T19:06:50.498Z,2.75
2022-10-11T19:09:22.189Z,2.20
2022-10-11T19:11:52.315Z,2.25
2022-10-11T19:14:21.719Z,2.70
2022-10-11T19:16:51.335Z,2.28
2022-10-11T19:19:20.409Z,2.72
2022-10-11T19:21:49.414Z,2.88
2022-10-11T19:24:17.830Z,3.13
2022-10-11T19:26:46.414Z,3.10
2022-10-11T19:29:18.651Z,3.45
2022-10-11T19:31:47.806Z,2.90
2022-10-11T19:34:16.129Z,3.35
2022-10-11T19:36:44.773Z,3.20
2022-10-11T19:39:13.997Z,4.28
2022-10-11T19:41:43.012Z,3.75
2022-10-11T19:44:11.726Z,4.05
2022-10-11T19:46:51.586Z,3.50
2022-10-11T19:49:22.508Z,3.58
2022-10-11T19:51:50.995Z,4.13
2022-10-11T19:54:19.706Z,3.05
2022-10-11T19:56:48.026Z,3.58
2022-10-11T19:59:16.446Z,3.67
2022-10-11T20:01:51.956Z,3.25
2022-10-11T20:07:09.637Z,3.80
2022-10-11T20:09:37.970Z,3.67
2022-10-11T20:12:06.368Z,3.30
2022-10-11T20:14:34.715Z,3.58
2022-10-11T20:17:04.443Z,3.30
2022-10-11T20:19:32.774Z,3.10
2022-10-11T20:22:01.585Z,3.53
2022-10-11T20:24:33.438Z,3.60
2022-10-11T20:27:02.741Z,3.75
2022-10-11T20:29:31.140Z,3.83
2022-10-11T20:31:59.831Z,3.22
2022-10-11T20:34:30.307Z,2.65
2022-10-11T20:36:59.018Z,2.90
2022-10-11T20:39:27.480Z,2.85
2022-10-11T20:41:55.831Z,2.63
2022-10-11T20:44:24.199Z,2.90
2022-10-11T20:46:52.514Z,3.20
2022-10-11T20:49:22.352Z,3.25
2022-10-11T20:51:52.022Z,2.97
2022-10-11T20:54:20.382Z,3.50
2022-10-11T20:56:48.701Z,3.70
2022-10-11T20:59:17.019Z,3.17
2022-10-11T21:01:45.600Z,3.75
2022-10-11T21:04:17.524Z,3.80
2022-10-11T21:06:45.847Z,3.97
2022-10-11T21:09:16.922Z,4.15
2022-10-11T21:11:45.599Z,3.90
2022-10-11T21:14:14.512Z,3.45
2022-10-11T21:16:43.030Z,3.95
2022-10-11T21:19:16.069Z,3.78
2022-10-11T21:21:49.703Z,5.07
2022-10-11T21:24:23.131Z,5.03
2022-10-11T21:26:51.465Z,4.82
2022-10-11T21:29:19.913Z,4.68
2022-10-11T21:31:48.235Z,4.47
2022-10-11T21:34:16.683Z,4.97
2022-10-11T21:36:45.030Z,4.18
2022-10-11T21:39:13.354Z,4.35
2022-10-11T21:41:43.038Z,3.67
2022-10-11T21:44:11.390Z,4.20
2022-10-11T21:47:05.587Z,4.18
2022-10-11T21:49:27.982Z,3.50
2022-10-11T21:51:56.338Z,3.30
2022-10-11T21:54:24.642Z,3.60
2022-10-11T21:56:54.649Z,3.55
2022-10-11T21:59:22.978Z,3.80
2022-10-11T22:01:51.363Z,3.47
2022-10-11T22:04:19.714Z,3.30
2022-10-11T22:06:48.343Z,3.45
2022-10-11T22:09:16.706Z,2.95
2022-10-11T22:11:45.051Z,3.05
2022-10-11T22:14:14.723Z,2.67
2022-10-11T22:16:43.024Z,2.70
2022-10-11T22:19:11.424Z,2.53
2022-10-11T22:21:44.114Z,2.58
2022-10-11T22:24:13.498Z,2.92
2022-10-11T22:26:41.788Z,2.70
2022-10-11T22:29:10.281Z,2.83
2022-10-11T22:31:39.948Z,2.72
2022-10-11T22:34:08.270Z,2.47
2022-10-11T22:36:36.999Z,2.70
2022-10-11T22:39:08.053Z,2.92
2022-10-11T22:41:36.534Z,2.75
2022-10-11T22:44:05.431Z,2.15
2022-10-11T22:46:33.774Z,2.63
2022-10-11T22:49:03.450Z,3.40
2022-10-11T22:51:31.767Z,2.58
2022-10-11T22:54:00.094Z,2.60
2022-10-11T22:56:28.402Z,2.25
2022-10-11T22:58:56.720Z,2.75
2022-10-11T23:01:25.037Z,2.60
2022-10-11T23:03:53.883Z,2.50
2022-10-11T23:06:23.715Z,2.88
2022-10-11T23:08:52.283Z,2.53
2022-10-11T23:11:20.844Z,2.60
2022-10-11T23:13:49.157Z,2.17
2022-10-11T23:16:17.481Z,2.60
2022-10-11T23:18:46.014Z,2.80
2022-10-11T23:21:14.342Z,2.92
2022-10-11T23:23:44.061Z,2.80
2022-10-11T23:26:13.151Z,2.63
2022-10-11T23:28:41.864Z,2.53
2022-10-11T23:31:10.920Z,2.88
2022-10-11T23:33:39.289Z,2.83
2022-10-11T23:36:08.029Z,2.63
2022-10-11T23:38:36.357Z,2.67
2022-10-11T23:41:06.179Z,2.47
2022-10-11T23:43:34.494Z,2.30
2022-10-11T23:46:02.815Z,2.30
2022-10-11T23:48:31.381Z,2.65
2022-10-11T23:50:59.706Z,2.65
2022-10-11T23:53:28.038Z,2.47
2022-10-11T23:55:56.337Z,2.33
2022-10-11T23:58:26.030Z,2.53
